IWA weather

Ivanovo South Airport
Ivanovo, Ivanovo Oblast, Russia

Public forecast

Using degrees Celsius for public forecast. Weather courtesy of forecast.io.

Current aviation weather report (METAR) for Ivanovo South Airport

Report is more than 6 hours old.

Retrieved 2013/07/19 07:30 UTC (7 years ago):

UUBI 190730Z 22005MPS 9999 FEW033 BKN200 21/11 Q1009 NOSIG RMK QFE746 29GLRD60

Aviation forecast (TAF) for Ivanovo South Airport

Forecast is more than 12 hours old.

Retrieved 2012/06/25 04:00 UTC (8 years ago):

TAF UUBI 250330Z 2504/2604 VRB02MPS 9999 BKN025 BKN100